createdAt,value
2022-10-03T00:01:09.441Z,89.82
2022-10-03T00:03:54.460Z,89.67
2022-10-03T00:06:22.794Z,89.76
2022-10-03T00:09:18.774Z,89.82
2022-10-03T00:11:59.726Z,89.65
2022-10-03T00:14:53.060Z,89.35
2022-10-03T00:17:50.915Z,90.52
2022-10-03T00:20:46.217Z,90.59
2022-10-03T00:23:35.826Z,90.06
2022-10-03T00:26:27.683Z,89.67
2022-10-03T00:29:19.354Z,89.88
2022-10-03T00:31:50.019Z,89.88
2022-10-03T00:34:22.842Z,89.93
2022-10-03T00:37:17.466Z,89.98
2022-10-03T00:40:06.133Z,89.69
2022-10-03T00:43:01.741Z,89.58
2022-10-03T00:46:04.395Z,89.63
2022-10-03T00:48:47.887Z,89.03
2022-10-03T00:51:23.508Z,90.15
2022-10-03T00:57:53.462Z,90.18
2022-10-03T01:00:24.854Z,90.06
2022-10-03T01:03:27.797Z,89.69
2022-10-03T01:06:28.620Z,90.25
2022-10-03T01:09:56.853Z,89.61
2022-10-03T01:12:54.133Z,90.33
2022-10-03T01:15:43.156Z,89.51
2022-10-03T01:18:45.796Z,90.04
2022-10-03T01:21:32.021Z,89.34
2022-10-03T01:24:49.472Z,89.79
2022-10-03T01:27:32.535Z,89.75
2022-10-03T01:30:24.118Z,89.56
2022-10-03T01:32:59.727Z,90.30
2022-10-03T01:35:36.099Z,89.74
2022-10-03T01:38:28.821Z,89.38
2022-10-03T01:41:11.681Z,89.21
2022-10-03T01:43:47.844Z,89.34
2022-10-03T01:46:28.987Z,89.40
2022-10-03T01:49:21.678Z,89.27
2022-10-03T01:52:28.833Z,90.29
2022-10-03T01:55:03.479Z,89.23
2022-10-03T01:57:37.013Z,88.91
2022-10-03T02:00:22.651Z,88.80
2022-10-03T02:03:20.567Z,88.68
2022-10-03T02:06:06.778Z,89.11
2022-10-03T02:08:46.143Z,89.06
2022-10-03T02:11:29.676Z,89.46
2022-10-03T02:20:54.053Z,89.71
2022-10-03T02:23:32.833Z,89.63
2022-10-03T02:26:45.037Z,89.14
2022-10-03T02:29:51.381Z,89.19
2022-10-03T02:39:53.983Z,89.01
2022-10-03T02:42:46.911Z,88.98
2022-10-03T02:45:26.878Z,89.36
2022-10-03T02:48:52.755Z,89.36
2022-10-03T02:51:49.625Z,89.58
2022-10-03T02:54:49.593Z,89.22
2022-10-03T02:58:02.124Z,89.09
2022-10-03T03:00:58.841Z,88.94
2022-10-03T03:03:46.765Z,88.88
2022-10-03T03:06:32.339Z,88.89
2022-10-03T03:09:23.290Z,88.97
2022-10-03T03:11:59.253Z,88.91
2022-10-03T03:14:47.813Z,88.74
2022-10-03T03:17:31.106Z,88.88
2022-10-03T03:20:22.681Z,88.84
2022-10-03T03:23:10.869Z,89.11
2022-10-03T03:26:04.763Z,89.41
2022-10-03T03:29:01.238Z,89.14
2022-10-03T03:32:18.608Z,89.06
2022-10-03T03:35:24.679Z,88.80
2022-10-03T03:38:14.250Z,88.79
2022-10-03T03:41:03.051Z,89.07
2022-10-03T03:43:50.407Z,89.50
2022-10-03T03:46:45.765Z,89.15
2022-10-03T03:49:53.506Z,88.83
2022-10-03T03:52:41.858Z,89.06
2022-10-03T03:55:24.124Z,89.00
2022-10-03T03:58:45.186Z,88.93
2022-10-03T04:01:31.675Z,89.06
2022-10-03T04:04:15.741Z,88.74
2022-10-03T04:07:22.374Z,88.83
2022-10-03T04:10:49.593Z,89.10
2022-10-03T04:16:51.256Z,89.12
2022-10-03T04:20:07.188Z,89.04
2022-10-03T04:23:05.451Z,89.05
2022-10-03T04:26:00.580Z,88.74
2022-10-03T04:28:41.663Z,88.99
2022-10-03T04:31:31.937Z,89.14
2022-10-03T04:34:42.356Z,89.37
2022-10-03T04:37:29.024Z,89.05
2022-10-03T04:40:08.397Z,89.00
2022-10-03T04:43:00.107Z,88.88
2022-10-03T04:45:53.616Z,89.01
2022-10-03T04:48:45.517Z,88.91
2022-10-03T04:51:27.673Z,89.06
2022-10-03T04:54:40.662Z,89.13
2022-10-03T04:57:41.730Z,89.04
2022-10-03T05:00:33.503Z,89.11
2022-10-03T05:03:26.788Z,89.12
2022-10-03T05:06:04.648Z,89.23
2022-10-03T05:08:55.226Z,89.48
2022-10-03T05:11:56.388Z,89.46
2022-10-03T05:15:07.386Z,89.33
2022-10-03T05:17:46.217Z,89.22
2022-10-03T05:20:39.251Z,89.28
2022-10-03T05:23:41.738Z,89.46
2022-10-03T05:26:45.156Z,89.42
2022-10-03T05:29:27.681Z,89.62
2022-10-03T05:32:27.689Z,89.65
2022-10-03T05:35:31.076Z,89.60
2022-10-03T05:38:10.938Z,89.44
2022-10-03T05:40:48.858Z,89.42
2022-10-03T05:43:58.870Z,90.20
2022-10-03T05:46:38.907Z,89.81
2022-10-03T05:49:25.548Z,89.88
2022-10-03T05:52:23.758Z,89.96
2022-10-03T05:55:16.578Z,89.70
2022-10-03T05:58:43.436Z,89.68
2022-10-03T06:01:23.069Z,90.27
2022-10-03T06:07:22.787Z,90.03
2022-10-03T06:10:18.890Z,89.81
2022-10-03T06:14:01.120Z,90.17
2022-10-03T06:16:51.284Z,90.11
2022-10-03T06:19:31.193Z,90.43
2022-10-03T06:22:22.901Z,90.72
2022-10-03T06:25:47.145Z,90.44
2022-10-03T06:28:40.214Z,90.66
2022-10-03T06:31:46.306Z,90.57
2022-10-03T06:34:34.520Z,91.10
2022-10-03T06:37:30.934Z,91.55
2022-10-03T06:40:25.988Z,90.87
2022-10-03T06:42:58.754Z,91.36
2022-10-03T06:45:38.910Z,91.75
2022-10-03T06:48:47.586Z,91.89
2022-10-03T06:52:11.400Z,91.90
2022-10-03T06:55:02.974Z,91.91
2022-10-03T06:58:08.257Z,92.09
2022-10-03T07:01:30.612Z,92.18
2022-10-03T07:05:03.813Z,92.31
2022-10-03T07:07:53.738Z,91.87
2022-10-03T07:10:35.152Z,92.30
2022-10-03T07:13:11.804Z,92.19
2022-10-03T07:18:56.309Z,92.11
2022-10-03T07:21:36.586Z,91.89
2022-10-03T07:24:29.715Z,91.98
2022-10-03T07:27:16.891Z,92.27
2022-10-03T07:30:12.086Z,92.46
2022-10-03T07:33:21.499Z,92.35
2022-10-03T07:36:32.446Z,91.92
2022-10-03T07:39:46.787Z,91.80
2022-10-03T07:42:21.236Z,91.43
2022-10-03T07:45:06.658Z,91.68
2022-10-03T07:47:44.826Z,91.36
2022-10-03T07:51:18.264Z,91.46
2022-10-03T07:53:47.875Z,91.78
2022-10-03T07:56:44.278Z,91.55
2022-10-03T07:59:55.010Z,91.18
2022-10-03T08:06:11.042Z,91.56
2022-10-03T08:08:57.740Z,91.77
2022-10-03T08:12:08.557Z,91.62
2022-10-03T08:14:58.203Z,91.73
2022-10-03T08:17:48.041Z,91.47
2022-10-03T08:20:33.198Z,91.27
2022-10-03T08:23:42.310Z,91.07
2022-10-03T08:26:20.881Z,90.85
2022-10-03T08:29:14.529Z,90.26
2022-10-03T08:32:01.534Z,89.39
2022-10-03T08:35:05.995Z,89.24
2022-10-03T08:38:24.938Z,89.50
2022-10-03T08:41:21.372Z,88.27
2022-10-03T08:44:15.811Z,88.89
2022-10-03T08:46:55.502Z,88.64
2022-10-03T08:50:13.848Z,88.50
2022-10-03T08:57:11.113Z,88.02
2022-10-03T09:00:02.085Z,87.58
2022-10-03T09:06:11.629Z,87.44
2022-10-03T09:08:57.759Z,86.82
2022-10-03T09:11:38.024Z,86.63
2022-10-03T09:14:19.815Z,87.14
2022-10-03T09:17:24.393Z,86.78
2022-10-03T09:19:58.413Z,86.66
2022-10-03T09:22:50.524Z,86.28
2022-10-03T09:25:19.770Z,85.91
2022-10-03T09:28:35.251Z,86.47
2022-10-03T09:31:14.803Z,85.92
2022-10-03T09:34:13.513Z,85.73
2022-10-03T09:37:00.554Z,85.66
2022-10-03T09:39:40.454Z,85.49
2022-10-03T09:42:31.171Z,86.06
2022-10-03T09:45:31.824Z,86.23
2022-10-03T09:48:48.112Z,85.96
2022-10-03T09:51:51.492Z,85.26
2022-10-03T09:55:02.834Z,84.35
2022-10-03T09:57:38.505Z,85.50
2022-10-03T10:00:16.529Z,85.15
2022-10-03T10:03:12.032Z,85.45
2022-10-03T10:06:11.424Z,84.66
2022-10-03T10:09:03.106Z,84.41
2022-10-03T10:12:01.898Z,84.18
2022-10-03T10:17:46.619Z,83.31
2022-10-03T10:20:39.284Z,83.71
2022-10-03T10:23:27.788Z,83.79
2022-10-03T10:26:30.593Z,84.57
2022-10-03T10:29:36.883Z,84.25
2022-10-03T10:32:23.699Z,83.63
2022-10-03T10:35:38.290Z,84.03
2022-10-03T10:38:18.906Z,84.73
2022-10-03T10:41:13.087Z,84.79
2022-10-03T10:43:45.828Z,83.85
2022-10-03T10:46:31.640Z,84.43
2022-10-03T10:49:46.186Z,85.45
2022-10-03T10:52:43.568Z,84.47
2022-10-03T10:55:53.551Z,83.39
2022-10-03T10:59:05.369Z,84.14
2022-10-03T11:02:22.687Z,82.94
2022-10-03T11:05:15.330Z,83.73
2022-10-03T11:08:18.428Z,83.26
2022-10-03T11:10:57.915Z,84.04
2022-10-03T11:13:41.781Z,84.02
2022-10-03T11:16:40.130Z,84.00
2022-10-03T11:19:50.576Z,84.32
2022-10-03T11:23:08.352Z,82.29
2022-10-03T11:26:14.191Z,82.95
2022-10-03T11:29:18.146Z,84.39
2022-10-03T11:32:19.657Z,81.74
2022-10-03T11:34:58.723Z,83.03
2022-10-03T11:37:33.041Z,82.76
2022-10-03T11:40:19.743Z,83.43
2022-10-03T11:46:26.789Z,81.97
2022-10-03T11:49:18.096Z,81.66
2022-10-03T11:52:08.295Z,82.17
2022-10-03T11:54:41.078Z,82.40
2022-10-03T11:57:14.592Z,83.01
2022-10-03T11:59:56.204Z,82.39
2022-10-03T12:02:47.345Z,82.95
2022-10-03T12:05:46.276Z,83.52
2022-10-03T12:08:44.941Z,82.41
2022-10-03T12:11:14.003Z,82.99
2022-10-03T12:13:57.572Z,82.18
2022-10-03T12:16:31.890Z,82.23
2022-10-03T12:19:18.031Z,82.66
2022-10-03T12:22:00.637Z,82.31
2022-10-03T12:25:06.541Z,82.21
2022-10-03T12:27:42.248Z,83.25
2022-10-03T12:30:18.062Z,81.78
2022-10-03T12:32:51.992Z,80.27
2022-10-03T12:35:45.950Z,81.23
2022-10-03T12:38:25.965Z,80.56
2022-10-03T12:45:10.980Z,81.64
2022-10-03T12:48:13.228Z,81.93
2022-10-03T12:50:55.107Z,83.04
2022-10-03T12:53:49.256Z,82.25
2022-10-03T12:56:25.208Z,82.13
2022-10-03T12:59:11.832Z,81.28
2022-10-03T13:02:03.546Z,80.93
2022-10-03T13:05:07.304Z,81.80
2022-10-03T13:07:52.373Z,81.26
2022-10-03T13:10:41.849Z,81.66
2022-10-03T13:13:27.901Z,82.38
2022-10-03T13:16:24.653Z,82.58
2022-10-03T13:19:17.423Z,83.22
2022-10-03T13:22:21.520Z,82.03
2022-10-03T13:25:00.867Z,83.32
2022-10-03T13:30:54.212Z,82.71
2022-10-03T13:33:33.524Z,83.61
2022-10-03T13:36:17.774Z,83.14
2022-10-03T13:38:58.714Z,82.35
2022-10-03T13:41:42.237Z,83.32
2022-10-03T13:44:50.288Z,82.45
2022-10-03T13:47:35.193Z,82.36
2022-10-03T13:50:13.748Z,83.13
2022-10-03T13:53:15.897Z,80.93
2022-10-03T13:56:02.281Z,81.35
2022-10-03T13:58:41.861Z,83.02
2022-10-03T14:01:25.588Z,82.76
2022-10-03T14:04:18.860Z,82.33
2022-10-03T14:07:02.009Z,81.35
2022-10-03T14:10:01.995Z,81.07
2022-10-03T14:12:50.993Z,81.54
2022-10-03T14:15:29.664Z,81.73
2022-10-03T14:18:23.352Z,79.55
2022-10-03T14:21:28.992Z,80.42
2022-10-03T14:24:02.835Z,80.87
2022-10-03T14:26:39.850Z,80.04
2022-10-03T14:29:51.757Z,80.73
2022-10-03T14:32:46.656Z,81.26
2022-10-03T14:35:53.087Z,81.26
2022-10-03T14:38:58.428Z,80.84
2022-10-03T14:41:32.990Z,80.23
2022-10-03T14:44:27.605Z,82.03
2022-10-03T14:47:00.576Z,81.49
2022-10-03T14:49:54.964Z,82.17
2022-10-03T14:52:28.040Z,81.68
2022-10-03T14:54:57.611Z,82.05
2022-10-03T14:58:08.855Z,81.59
2022-10-03T15:00:43.607Z,81.84
2022-10-03T15:03:16.985Z,82.10
2022-10-03T15:06:19.920Z,81.75
2022-10-03T15:08:52.200Z,82.35
2022-10-03T15:11:27.211Z,82.01
2022-10-03T15:14:26.997Z,82.20
2022-10-03T15:16:57.458Z,82.50
2022-10-03T15:20:22.513Z,81.50
2022-10-03T15:22:59.685Z,81.76
2022-10-03T15:25:48.357Z,81.71
2022-10-03T15:28:30.620Z,81.50
2022-10-03T15:31:14.453Z,81.83
2022-10-03T15:33:45.778Z,81.79
2022-10-03T15:36:25.553Z,82.33
2022-10-03T15:39:00.407Z,81.73
2022-10-03T15:41:36.015Z,81.53
2022-10-03T15:44:41.045Z,81.82
2022-10-03T15:47:29.327Z,81.95
2022-10-03T15:50:02.621Z,82.06
2022-10-03T15:52:46.918Z,82.54
2022-10-03T15:55:46.580Z,82.88
2022-10-03T15:58:25.430Z,81.79
2022-10-03T16:01:11.474Z,81.98
2022-10-03T16:03:47.971Z,81.93
2022-10-03T16:06:39.865Z,82.61
2022-10-03T16:09:30.684Z,82.24
2022-10-03T16:12:47.945Z,82.65
2022-10-03T16:18:50.941Z,82.54
2022-10-03T16:21:48.513Z,83.38
2022-10-03T16:24:32.739Z,83.37
2022-10-03T16:27:21.046Z,83.21
2022-10-03T16:30:11.965Z,83.04
2022-10-03T16:33:33.679Z,83.58
2022-10-03T16:36:05.090Z,83.21
2022-10-03T16:41:46.709Z,83.36
2022-10-03T16:44:25.078Z,83.43
2022-10-03T16:47:03.238Z,83.80
2022-10-03T16:50:05.415Z,83.75
2022-10-03T16:52:39.531Z,83.88
2022-10-03T16:58:29.369Z,83.95
2022-10-03T17:01:31.835Z,84.68
2022-10-03T17:04:15.810Z,84.64
2022-10-03T17:06:48.220Z,84.67
2022-10-03T17:09:47.022Z,84.66
2022-10-03T17:12:24.467Z,84.76
2022-10-03T17:14:56.337Z,85.00
2022-10-03T17:17:39.361Z,85.59
2022-10-03T17:23:37.186Z,85.02
2022-10-03T17:26:22.362Z,85.00
2022-10-03T17:28:57.507Z,85.28
2022-10-03T17:31:53.013Z,85.28
2022-10-03T17:34:23.513Z,85.46
2022-10-03T17:37:05.812Z,85.36
2022-10-03T17:39:54.081Z,85.51
2022-10-03T17:42:54.913Z,85.21
2022-10-03T17:48:54.928Z,85.04
2022-10-03T17:51:36.584Z,85.09
2022-10-03T17:54:16.738Z,85.05
2022-10-03T17:56:57.312Z,85.41
2022-10-03T17:59:32.796Z,85.76
2022-10-03T18:02:14.078Z,85.86
2022-10-03T18:04:45.060Z,85.66
2022-10-03T18:07:25.615Z,85.92
2022-10-03T18:09:54.629Z,85.70
2022-10-03T18:12:32.377Z,85.79
2022-10-03T18:19:21.575Z,86.55
2022-10-03T18:22:03.819Z,86.58
2022-10-03T18:24:49.202Z,86.83
2022-10-03T18:30:46.092Z,86.88
2022-10-03T18:33:20.671Z,86.92
2022-10-03T18:35:50.155Z,86.41
2022-10-03T18:38:23.614Z,86.93
2022-10-03T18:41:00.846Z,86.52
2022-10-03T18:43:36.932Z,86.56
2022-10-03T18:46:28.473Z,86.27
2022-10-03T18:52:10.931Z,86.65
2022-10-03T18:55:08.423Z,86.34
2022-10-03T18:57:57.032Z,86.23
2022-10-03T19:00:28.166Z,86.31
2022-10-03T19:03:08.036Z,86.39
2022-10-03T19:05:44.729Z,86.83
2022-10-03T19:08:19.020Z,86.44
2022-10-03T19:11:19.298Z,86.97
2022-10-03T19:14:19.058Z,86.61
2022-10-03T19:17:15.099Z,87.05
2022-10-03T19:20:12.753Z,86.86
2022-10-03T19:22:54.558Z,86.81
2022-10-03T19:28:32.546Z,86.70
2022-10-03T19:31:39.642Z,86.86
2022-10-03T19:34:31.764Z,86.86
2022-10-03T19:36:59.993Z,86.77
2022-10-03T19:39:29.929Z,86.62
2022-10-03T19:42:18.948Z,87.15
2022-10-03T19:44:46.988Z,86.97
2022-10-03T19:47:19.248Z,86.89
2022-10-03T19:50:06.407Z,87.02
2022-10-03T19:52:35.913Z,86.82
2022-10-03T19:55:12.535Z,86.92
2022-10-03T19:57:42.638Z,86.96
2022-10-03T20:00:27.449Z,86.96
2022-10-03T20:03:25.254Z,86.88
2022-10-03T20:09:30.689Z,86.84
2022-10-03T20:12:14.807Z,86.98
2022-10-03T20:14:43.268Z,87.03
2022-10-03T20:17:20.716Z,86.84
2022-10-03T20:19:54.767Z,86.84
2022-10-03T20:22:41.670Z,87.07
2022-10-03T20:25:25.528Z,86.90
2022-10-03T20:28:01.123Z,87.03
2022-10-03T20:30:45.146Z,87.08
2022-10-03T20:33:37.135Z,87.04
2022-10-03T20:36:17.597Z,86.95
2022-10-03T20:39:02.264Z,86.89
2022-10-03T20:41:56.050Z,87.03
2022-10-03T20:44:49.083Z,87.29
2022-10-03T20:47:35.559Z,87.40
2022-10-03T20:50:30.371Z,87.29
2022-10-03T20:52:58.888Z,87.34
2022-10-03T20:55:31.648Z,87.35
2022-10-03T20:58:13.207Z,87.20
2022-10-03T21:00:48.147Z,87.33
2022-10-03T21:03:17.953Z,87.32
2022-10-03T21:05:53.795Z,87.32
2022-10-03T21:08:33.026Z,87.32
2022-10-03T21:11:25.177Z,87.04
2022-10-03T21:14:11.929Z,87.19
2022-10-03T21:16:46.149Z,87.01
2022-10-03T21:19:20.076Z,86.99
2022-10-03T21:21:56.694Z,86.77
2022-10-03T21:24:49.006Z,86.98
2022-10-03T21:27:19.751Z,87.29
2022-10-03T21:30:01.668Z,87.39
2022-10-03T21:32:37.068Z,87.03
2022-10-03T21:35:26.711Z,86.99
2022-10-03T21:38:15.928Z,87.47
2022-10-03T21:41:23.453Z,87.19
2022-10-03T21:44:00.749Z,87.40
2022-10-03T21:46:52.894Z,87.49
2022-10-03T21:49:59.481Z,87.56
2022-10-03T21:53:13.423Z,87.85
2022-10-03T21:56:15.945Z,87.44
2022-10-03T21:58:51.800Z,87.57
2022-10-03T22:01:31.302Z,87.74
2022-10-03T22:04:23.258Z,87.82
2022-10-03T22:07:15.510Z,87.50
2022-10-03T22:09:53.737Z,87.81
2022-10-03T22:12:24.399Z,87.42
2022-10-03T22:14:54.546Z,87.67
2022-10-03T22:21:04.776Z,87.87
2022-10-03T22:23:54.010Z,88.18
2022-10-03T22:26:55.940Z,88.00
2022-10-03T22:29:33.516Z,88.00
2022-10-03T22:32:10.226Z,88.08
2022-10-03T22:34:44.785Z,88.05
2022-10-03T22:37:14.720Z,87.62
2022-10-03T22:39:43.215Z,87.96
2022-10-03T22:42:20.032Z,88.12
2022-10-03T22:44:52.088Z,87.96
2022-10-03T22:47:27.272Z,88.05
2022-10-03T22:53:23.780Z,87.95
2022-10-03T22:55:55.779Z,87.89
2022-10-03T22:58:24.939Z,87.90
2022-10-03T23:00:56.120Z,87.93
2022-10-03T23:03:26.774Z,88.08
2022-10-03T23:06:08.049Z,87.91
2022-10-03T23:08:53.677Z,87.90
2022-10-03T23:11:27.419Z,87.88
2022-10-03T23:13:57.782Z,88.22
2022-10-03T23:16:54.268Z,87.98
2022-10-03T23:22:58.370Z,87.88
2022-10-03T23:25:40.102Z,87.91
2022-10-03T23:28:39.243Z,87.97
2022-10-03T23:31:07.367Z,88.02
2022-10-03T23:33:35.047Z,87.95
2022-10-03T23:36:15.923Z,88.08
2022-10-03T23:39:38.190Z,87.93
2022-10-03T23:42:10.364Z,88.00
2022-10-03T23:45:14.863Z,88.03
2022-10-03T23:48:11.194Z,87.94
2022-10-03T23:50:46.654Z,88.10
2022-10-03T23:53:38.702Z,87.94
2022-10-03T23:56:21.882Z,87.95
2022-10-03T23:59:23.066Z,87.83
